createdAt,value
2023-05-04T00:00:25.390Z,4.13
2023-05-04T00:05:30.173Z,4.22
2023-05-04T00:10:31.931Z,4.82
2023-05-04T00:15:33.507Z,4.60
2023-05-04T00:20:36.155Z,4.07
2023-05-04T00:25:38.748Z,4.60
2023-05-04T00:30:40.393Z,4.80
2023-05-04T00:35:42.303Z,4.53
2023-05-04T00:40:44.407Z,4.65
2023-05-04T00:45:46.368Z,4.05
2023-05-04T00:50:48.012Z,4.53
2023-05-04T00:55:49.641Z,4.65
2023-05-04T01:00:51.977Z,4.07
2023-05-04T01:06:09.742Z,4.05
2023-05-04T01:11:16.281Z,4.72
2023-05-04T01:16:17.980Z,4.65
2023-05-04T01:21:19.630Z,5.30
2023-05-04T01:26:30.187Z,3.88
2023-05-04T01:31:35.521Z,4.95
2023-05-04T01:36:37.459Z,5.15
2023-05-04T01:41:39.399Z,4.68
2023-05-04T01:46:41.499Z,5.10
2023-05-04T01:51:43.223Z,4.70
2023-05-04T01:56:44.904Z,5.32
2023-05-04T02:01:47.233Z,5.40
2023-05-04T02:06:49.269Z,5.13
2023-05-04T02:11:52.306Z,4.55
2023-05-04T02:16:53.899Z,4.60
2023-05-04T02:21:55.652Z,5.13
2023-05-04T02:26:57.240Z,4.22
2023-05-04T02:31:58.995Z,5.47
2023-05-04T02:37:00.682Z,6.45
2023-05-04T02:42:03.060Z,6.40
2023-05-04T02:47:05.954Z,5.57
2023-05-04T02:52:07.977Z,6.25
2023-05-04T02:57:09.584Z,5.63
2023-05-04T03:02:11.413Z,5.75
2023-05-04T03:07:13.218Z,5.53
2023-05-04T03:12:15.036Z,6.47
2023-05-04T03:17:17.622Z,6.32
2023-05-04T03:22:19.575Z,5.95
2023-05-04T03:27:24.316Z,5.88
2023-05-04T03:32:26.801Z,6.22
2023-05-04T03:37:28.672Z,5.78
2023-05-04T03:42:30.385Z,6.13
2023-05-04T03:47:32.216Z,5.85
2023-05-04T03:52:34.309Z,6.32
2023-05-04T03:57:38.749Z,5.35
2023-05-04T04:02:41.110Z,6.28
2023-05-04T04:07:44.604Z,5.60
2023-05-04T04:12:46.321Z,6.03
2023-05-04T04:17:47.984Z,6.30
2023-05-04T04:22:49.567Z,6.47
2023-05-04T04:27:51.633Z,6.35
2023-05-04T04:32:54.957Z,6.18
2023-05-04T04:37:56.536Z,6.10
2023-05-04T04:42:58.154Z,6.78
2023-05-04T04:47:59.788Z,6.53
2023-05-04T04:53:01.461Z,6.47
2023-05-04T04:58:03.039Z,7.25
2023-05-04T05:03:05.093Z,6.78
2023-05-04T05:08:06.714Z,7.90
2023-05-04T05:13:12.690Z,7.30
2023-05-04T05:18:14.328Z,6.95
2023-05-04T05:23:16.378Z,7.35
2023-05-04T05:28:18.528Z,7.38
2023-05-04T05:33:20.413Z,7.55
2023-05-04T05:38:22.104Z,7.60
2023-05-04T05:43:23.695Z,7.82
2023-05-04T05:48:25.249Z,8.18
2023-05-04T05:53:26.886Z,8.13
2023-05-04T05:58:28.543Z,8.13
2023-05-04T06:03:30.208Z,8.18
2023-05-04T06:08:36.439Z,8.45
2023-05-04T06:13:38.305Z,9.15
2023-05-04T06:18:40.139Z,7.90
2023-05-04T06:23:41.929Z,8.52
2023-05-04T06:28:43.512Z,9.63
2023-05-04T06:33:45.054Z,8.32
2023-05-04T06:38:46.662Z,8.93
2023-05-04T06:43:48.293Z,8.35
2023-05-04T06:48:49.885Z,9.85
2023-05-04T06:53:51.496Z,9.13
2023-05-04T06:58:53.173Z,9.00
2023-05-04T07:03:58.286Z,9.52
2023-05-04T07:09:00.000Z,9.63
2023-05-04T07:14:02.072Z,9.50
2023-05-04T07:19:04.581Z,10.38
2023-05-04T07:24:07.419Z,10.10
2023-05-04T07:29:09.667Z,9.00
2023-05-04T07:34:11.392Z,8.90
2023-05-04T07:39:13.267Z,8.40
2023-05-04T07:44:17.189Z,10.15
2023-05-04T07:49:18.744Z,8.85
2023-05-04T07:54:22.550Z,8.25
2023-05-04T07:59:24.528Z,9.00
2023-05-04T08:04:26.161Z,8.73
2023-05-04T08:09:27.874Z,7.88
2023-05-04T08:14:29.609Z,8.05
2023-05-04T08:19:31.175Z,7.38
2023-05-04T08:24:32.976Z,7.63
2023-05-04T08:29:36.374Z,7.40
2023-05-04T08:34:38.749Z,7.72
2023-05-04T08:39:41.940Z,7.95
2023-05-04T08:45:00.884Z,8.35
2023-05-04T08:50:02.711Z,6.72
2023-05-04T08:55:06.604Z,6.65
2023-05-04T09:00:09.569Z,6.32
2023-05-04T09:05:12.104Z,6.57
2023-05-04T09:10:13.709Z,7.63
2023-05-04T09:15:20.783Z,6.15
2023-05-04T09:20:22.363Z,6.25
2023-05-04T09:25:24.038Z,6.50
2023-05-04T09:30:26.299Z,6.72
2023-05-04T09:35:33.598Z,6.82
2023-05-04T09:40:37.667Z,6.45
2023-05-04T09:45:44.197Z,6.50
2023-05-04T09:51:07.344Z,7.00
2023-05-04T09:56:14.168Z,6.57
2023-05-04T10:01:18.407Z,7.90
2023-05-04T10:06:21.287Z,6.57
2023-05-04T10:11:25.806Z,5.95
2023-05-04T10:16:45.047Z,6.18
2023-05-04T10:22:04.792Z,6.55
2023-05-04T10:27:06.296Z,5.97
2023-05-04T10:32:19.264Z,6.07
2023-05-04T10:37:22.020Z,5.68
2023-05-04T10:42:24.583Z,5.68
2023-05-04T10:47:32.856Z,5.40
2023-05-04T10:52:48.794Z,4.32
2023-05-04T10:57:53.784Z,5.15
2023-05-04T11:03:03.760Z,4.80
2023-05-04T11:08:19.356Z,4.50
2023-05-04T11:13:21.023Z,4.50
2023-05-04T11:18:30.922Z,4.63
2023-05-04T11:23:32.755Z,4.15
2023-05-04T11:28:38.317Z,3.80
2023-05-04T11:33:45.487Z,3.83
2023-05-04T11:38:47.554Z,3.67
2023-05-04T11:43:49.251Z,3.40
2023-05-04T11:48:50.866Z,3.47
2023-05-04T11:53:53.812Z,3.28
2023-05-04T11:58:55.386Z,3.58
2023-05-04T12:03:57.196Z,3.70
2023-05-04T12:09:04.951Z,2.97
2023-05-04T12:14:09.736Z,3.33
2023-05-04T12:19:13.138Z,3.03
2023-05-04T12:24:15.016Z,3.05
2023-05-04T12:29:16.739Z,3.08
2023-05-04T12:34:18.326Z,3.17
2023-05-04T12:39:20.009Z,2.70
2023-05-04T12:44:21.625Z,3.00
2023-05-04T12:49:24.814Z,2.53
2023-05-04T12:54:26.743Z,2.65
2023-05-04T12:59:28.535Z,2.60
2023-05-04T13:04:30.855Z,2.78
2023-05-04T13:09:32.753Z,2.50
2023-05-04T13:14:39.557Z,2.70
2023-05-04T13:19:41.603Z,2.33
2023-05-04T13:24:43.161Z,2.70
2023-05-04T13:29:44.819Z,2.80
2023-05-04T13:34:47.169Z,2.92
2023-05-04T13:39:49.096Z,2.38
2023-05-04T13:44:50.786Z,2.33
2023-05-04T13:49:52.420Z,2.65
2023-05-04T13:54:54.127Z,2.60
2023-05-04T14:00:06.290Z,3.03
2023-05-04T14:05:15.179Z,2.50
2023-05-04T14:10:17.740Z,2.40
2023-05-04T14:15:22.689Z,2.70
2023-05-04T14:20:24.444Z,2.50
2023-05-04T14:25:26.333Z,2.80
2023-05-04T14:30:28.027Z,3.20
2023-05-04T14:35:30.333Z,2.58
2023-05-04T14:40:32.006Z,2.75
2023-05-04T14:45:34.170Z,2.75
2023-05-04T14:50:35.741Z,2.90
2023-05-04T14:55:41.757Z,2.60
2023-05-04T15:00:44.737Z,2.50
2023-05-04T15:05:46.299Z,2.72
2023-05-04T15:10:47.854Z,2.40
2023-05-04T15:15:49.458Z,2.65
2023-05-04T15:20:51.068Z,2.78
2023-05-04T15:25:52.772Z,2.50
2023-05-04T15:30:54.327Z,2.53
2023-05-04T15:35:55.861Z,2.45
2023-05-04T15:40:57.432Z,2.83
2023-05-04T15:45:59.123Z,2.53
2023-05-04T15:51:01.172Z,2.20
2023-05-04T15:56:06.054Z,3.70
2023-05-04T16:01:10.707Z,2.58
2023-05-04T16:06:13.114Z,2.90
2023-05-04T16:11:14.679Z,2.80
2023-05-04T16:16:16.437Z,2.50
2023-05-04T16:21:18.413Z,2.63
2023-05-04T16:26:20.238Z,2.50
2023-05-04T16:31:21.834Z,3.00
2023-05-04T16:36:23.482Z,2.80
2023-05-04T16:41:25.113Z,2.42
2023-05-04T16:46:26.735Z,2.92
2023-05-04T16:51:28.359Z,2.75
2023-05-04T16:56:29.972Z,2.95
2023-05-04T17:01:31.570Z,2.70
2023-05-04T17:06:33.189Z,3.00
2023-05-04T17:11:34.865Z,3.03
2023-05-04T17:16:36.519Z,2.80
2023-05-04T17:21:38.165Z,3.00
2023-05-04T17:26:39.682Z,2.85
2023-05-04T17:31:41.285Z,3.17
2023-05-04T17:36:42.922Z,2.90
2023-05-04T17:41:48.975Z,2.90
2023-05-04T17:46:50.946Z,2.72
2023-05-04T17:51:53.208Z,3.00
2023-05-04T17:56:54.743Z,2.90
2023-05-04T18:01:56.328Z,3.30
2023-05-04T18:06:58.611Z,3.08
2023-05-04T18:12:00.196Z,3.08
2023-05-04T18:17:01.747Z,2.60
2023-05-04T18:22:03.297Z,2.90
2023-05-04T18:27:04.873Z,3.38
2023-05-04T18:32:08.873Z,3.08
2023-05-04T18:37:11.115Z,2.85
2023-05-04T18:42:12.779Z,3.50
2023-05-04T18:47:14.352Z,3.47
2023-05-04T18:52:15.894Z,3.40
2023-05-04T18:57:17.797Z,3.63
2023-05-04T19:02:19.399Z,2.83
2023-05-04T19:07:21.065Z,2.92
2023-05-04T19:12:22.712Z,2.92
2023-05-04T19:17:24.365Z,3.20
2023-05-04T19:22:26.036Z,2.97
2023-05-04T19:27:27.787Z,3.60
2023-05-04T19:32:30.967Z,3.10
2023-05-04T19:37:33.035Z,3.42
2023-05-04T19:42:34.632Z,3.50
2023-05-04T19:47:36.246Z,3.53
2023-05-04T19:52:38.488Z,3.42
2023-05-04T19:57:40.059Z,3.33
2023-05-04T20:02:41.987Z,3.53
2023-05-04T20:07:43.833Z,3.33
2023-05-04T20:12:45.433Z,3.70
2023-05-04T20:17:47.018Z,4.03
2023-05-04T20:22:52.150Z,3.65
2023-05-04T20:27:54.089Z,3.88
2023-05-04T20:32:55.694Z,4.82
2023-05-04T20:37:57.978Z,3.42
2023-05-04T20:42:59.530Z,3.90
2023-05-04T20:48:02.446Z,4.18
2023-05-04T20:53:04.315Z,3.65
2023-05-04T20:58:05.911Z,4.15
2023-05-04T21:03:07.533Z,3.80
2023-05-04T21:08:09.173Z,4.60
2023-05-04T21:13:10.788Z,3.80
2023-05-04T21:18:12.560Z,3.50
2023-05-04T21:23:14.507Z,5.38
2023-05-04T21:28:16.045Z,5.00
2023-05-04T21:33:17.577Z,4.80
2023-05-04T21:38:21.700Z,4.82
2023-05-04T21:43:23.724Z,4.85
2023-05-04T21:48:26.063Z,5.78
2023-05-04T21:53:33.048Z,4.93
2023-05-04T21:58:35.913Z,5.28
2023-05-04T22:03:43.568Z,4.72
2023-05-04T22:08:45.118Z,5.10
2023-05-04T22:13:46.773Z,5.50
2023-05-04T22:18:49.509Z,5.57
2023-05-04T22:23:51.094Z,5.15
2023-05-04T22:28:52.780Z,5.30
2023-05-04T22:33:54.319Z,5.60
2023-05-04T22:39:00.974Z,6.28
2023-05-04T22:44:02.512Z,5.32
2023-05-04T22:49:04.640Z,5.60
2023-05-04T22:54:06.269Z,6.03
2023-05-04T22:59:07.844Z,6.15
2023-05-04T23:04:09.838Z,6.75
2023-05-04T23:09:11.837Z,5.60
2023-05-04T23:14:13.410Z,6.72
2023-05-04T23:19:14.945Z,5.57
2023-05-04T23:24:16.502Z,6.13
2023-05-04T23:29:19.047Z,6.07
2023-05-04T23:34:20.600Z,5.18
2023-05-04T23:39:22.187Z,6.28
2023-05-04T23:44:23.757Z,5.97
2023-05-04T23:49:25.344Z,5.93
2023-05-04T23:54:27.051Z,5.50
2023-05-04T23:59:28.570Z,5.30
